Time;durP1;ratioP1;P1;durP2;ratioP2;P2;SDS_P1;SDS_P2;PMS_P1;PMS_P2;Temp;Humidity;BMP_temperature;BMP_pressure;BME280_temperature;BME280_humidity;BME280_pressure;Samples;Min_cycle;Max_cycle;Signal;HPM_P1;HPM_P2
2024/04/20 00:01:46;;;;;;;5.40;4.10;;;;;;;6.91;100.00;98911.30;176744;1262;46253;-83
2024/04/20 00:05:49;;;;;;;4.90;3.70;;;;;;;6.87;100.00;98908.17;176755;1262;46006;-83
2024/04/20 00:09:51;;;;;;;5.50;3.80;;;;;;;6.85;100.00;98910.08;177384;1264;59400;-84
2024/04/20 00:13:55;;;;;;;7.90;4.30;;;;;;;6.83;100.00;98909.04;176987;1263;46011;-84
2024/04/20 00:17:58;;;;;;;4.50;3.70;;;;;;;6.80;100.00;98914.94;176645;1264;46119;-84
2024/04/20 00:22:01;;;;;;;3.40;2.80;;;;;;;6.76;100.00;98916.72;177153;1263;46187;-84
2024/04/20 00:26:05;;;;;;;7.10;4.30;;;;;;;6.75;100.00;98918.74;177111;1264;46122;-84
2024/04/20 00:30:08;;;;;;;5.20;4.30;;;;;;;6.75;100.00;98924.37;176924;1264;58836;-85
2024/04/20 00:34:11;;;;;;;6.80;5.50;;;;;;;6.76;100.00;98923.19;176660;1264;46163;-82
2024/04/20 00:38:14;;;;;;;13.00;5.40;;;;;;;6.77;100.00;98926.14;176778;1263;46131;-84
2024/04/20 00:42:17;;;;;;;5.50;4.80;;;;;;;6.78;100.00;98928.68;176368;1263;46129;-83
2024/04/20 00:46:27;;;;;;;10.00;5.20;;;;;;;6.82;100.00;98931.11;177044;1264;46231;-84
2024/04/20 00:50:30;;;;;;;7.70;6.80;;;;;;;6.88;100.00;98931.88;177026;1263;57192;-85
2024/04/20 00:54:35;;;;;;;7.00;6.10;;;;;;;6.92;100.00;98934.81;177035;1264;46092;-84
2024/04/20 00:58:39;;;;;;;5.50;4.70;;;;;;;6.96;100.00;98939.63;176798;1264;45988;-85
2024/04/20 01:02:44;;;;;;;5.80;5.20;;;;;;;6.97;100.00;98945.84;176583;1263;46144;-83
2024/04/20 01:06:47;;;;;;;7.90;6.00;;;;;;;7.00;100.00;98949.83;176906;1263;46209;-83
2024/04/20 01:10:51;;;;;;;9.80;6.70;;;;;;;7.01;100.00;98954.14;176626;1266;58306;-83
2024/04/20 01:14:54;;;;;;;3.80;3.40;;;;;;;7.02;100.00;98955.30;176471;1264;46021;-82
2024/04/20 01:18:57;;;;;;;5.40;4.90;;;;;;;7.05;100.00;98956.79;176664;1264;46125;-83
2024/04/20 01:23:00;;;;;;;5.30;4.20;;;;;;;7.07;100.00;98958.71;176585;1262;46017;-84
2024/04/20 01:27:03;;;;;;;5.00;4.50;;;;;;;7.07;100.00;98961.06;177828;1262;45982;-84
2024/04/20 01:31:06;;;;;;;4.80;4.00;;;;;;;7.07;100.00;98960.84;179241;1261;58450;-85
2024/04/20 01:35:09;;;;;;;4.90;4.40;;;;;;;7.08;100.00;98966.22;177392;1266;46446;-84
2024/04/20 01:39:12;;;;;;;4.60;4.00;;;;;;;7.08;100.00;98967.80;176525;1264;46142;-84
2024/04/20 01:43:15;;;;;;;4.10;3.70;;;;;;;7.09;100.00;98971.42;176403;1262;46081;-83
2024/04/20 01:47:18;;;;;;;4.30;3.90;;;;;;;7.07;100.00;98973.06;176703;1264;46030;-84
2024/04/20 01:51:21;;;;;;;5.30;3.80;;;;;;;7.03;100.00;98972.31;177448;1264;59420;-85
2024/04/20 01:55:24;;;;;;;5.80;3.90;;;;;;;7.01;100.00;98973.38;177259;1264;46063;-84
2024/04/20 01:59:27;;;;;;;6.00;3.80;;;;;;;6.91;100.00;98977.94;177145;1266;46123;-84
2024/04/20 02:03:30;;;;;;;4.20;3.80;;;;;;;6.88;100.00;98980.50;177793;1263;46060;-84
2024/04/20 02:07:34;;;;;;;4.80;4.30;;;;;;;6.87;100.00;98987.63;176883;1266;45999;-87
2024/04/20 02:11:37;;;;;;;4.60;4.10;;;;;;;6.96;100.00;98991.42;178157;1262;57945;-87
2024/04/20 02:15:40;;;;;;;5.50;3.80;;;;;;;7.01;100.00;98996.31;178441;1262;46105;-88
2024/04/20 02:19:43;;;;;;;5.70;5.30;;;;;;;7.01;100.00;99001.61;177378;1263;45990;-87
2024/04/20 02:23:46;;;;;;;6.40;5.70;;;;;;;6.95;100.00;99003.52;176590;1262;46126;-87
2024/04/20 02:27:53;;;;;;;5.80;4.00;;;;;;;6.92;100.00;99004.98;176765;1262;46042;-88
2024/04/20 02:31:57;;;;;;;5.00;4.50;;;;;;;6.89;100.00;99006.09;176848;1263;59383;-87
2024/04/20 02:36:00;;;;;;;4.00;3.30;;;;;;;6.81;100.00;99012.77;177249;1262;46167;-88
2024/04/20 02:40:04;;;;;;;3.40;3.10;;;;;;;6.82;100.00;99016.10;176681;1262;46147;-87
2024/04/20 02:44:07;;;;;;;3.90;3.50;;;;;;;6.79;100.00;99015.99;177325;1262;45963;-88
2024/04/20 02:48:10;;;;;;;4.30;3.90;;;;;;;6.77;100.00;99019.84;176978;1262;46019;-88
2024/04/20 02:52:14;;;;;;;5.10;3.90;;;;;;;6.77;100.00;99019.48;176959;1262;57140;-87
2024/04/20 02:56:17;;;;;;;4.40;3.70;;;;;;;6.78;100.00;99024.36;176551;1262;46073;-87
2024/04/20 03:00:20;;;;;;;3.90;3.60;;;;;;;6.77;100.00;99032.55;176909;1262;46008;-88
2024/04/20 03:04:23;;;;;;;4.00;3.50;;;;;;;6.75;100.00;99030.80;177165;1261;46115;-88
2024/04/20 03:08:26;;;;;;;4.10;2.70;;;;;;;6.63;100.00;99035.13;176455;1263;46148;-87
2024/04/20 03:12:30;;;;;;;2.70;2.10;;;;;;;6.55;100.00;99039.47;176661;1262;59582;-85
2024/04/20 03:16:33;;;;;;;3.90;2.30;;;;;;;6.49;100.00;99045.85;176841;1263;46076;-85
2024/04/20 03:20:36;;;;;;;2.60;1.90;;;;;;;6.44;100.00;99049.80;176701;1263;46004;-87
2024/04/20 03:24:39;;;;;;;3.50;1.50;;;;;;;6.38;100.00;99053.22;176617;1262;46187;-86
2024/04/20 03:28:42;;;;;;;4.50;2.00;;;;;;;6.32;100.00;99058.15;177019;1261;46164;-85
2024/04/20 03:32:45;;;;;;;3.10;2.20;;;;;;;6.27;100.00;99060.67;177178;1261;59297;-87
2024/04/20 03:36:48;;;;;;;2.60;1.60;;;;;;;6.20;100.00;99063.73;179529;1262;46062;-87
2024/04/20 03:40:51;;;;;;;2.60;1.60;;;;;;;6.17;100.00;99073.85;179948;1262;46088;-88
2024/04/20 03:44:54;;;;;;;2.80;2.10;;;;;;;6.14;100.00;99077.78;177710;1262;46019;-86
2024/04/20 03:48:58;;;;;;;1.90;1.50;;;;;;;6.14;100.00;99082.31;177463;1262;46121;-87
2024/04/20 03:53:01;;;;;;;2.40;2.20;;;;;;;6.13;100.00;99084.55;177027;1263;57959;-87
2024/04/20 03:57:04;;;;;;;2.30;1.90;;;;;;;6.13;100.00;99088.06;177559;1261;46186;-86
2024/04/20 04:01:08;;;;;;;2.50;2.10;;;;;;;6.10;100.00;99092.15;178291;1262;46070;-87
2024/04/20 04:05:11;;;;;;;7.20;2.60;;;;;;;6.13;100.00;99098.07;177449;1262;46144;-88
2024/04/20 04:09:14;;;;;;;3.60;2.60;;;;;;;6.17;100.00;99104.85;176820;1262;46139;-87
2024/04/20 04:13:18;;;;;;;6.40;2.80;;;;;;;6.18;100.00;99111.77;177265;1261;59644;-88
2024/04/20 04:17:21;;;;;;;2.30;1.60;;;;;;;6.19;100.00;99118.54;176886;1267;45981;-86
2024/04/20 04:21:24;;;;;;;2.60;2.10;;;;;;;6.21;100.00;99122.27;177160;1262;46218;-86
2024/04/20 04:25:27;;;;;;;2.70;2.00;;;;;;;6.20;100.00;99127.95;178034;1263;45991;-87
2024/04/20 04:29:30;;;;;;;2.10;1.30;;;;;;;6.21;100.00;99126.84;177418;1262;46121;-87
2024/04/20 04:33:33;;;;;;;2.90;2.10;;;;;;;6.19;100.00;99130.69;177093;1263;59527;-86
2024/04/20 04:37:36;;;;;;;5.40;1.60;;;;;;;6.24;100.00;99134.34;176752;1262;46121;-87
2024/04/20 04:41:39;;;;;;;2.00;1.60;;;;;;;6.27;100.00;99142.17;176664;1262;46011;-87
2024/04/20 04:45:42;;;;;;;3.60;2.00;;;;;;;6.27;100.00;99148.00;176982;1262;47235;-87
2024/04/20 04:49:45;;;;;;;2.50;1.50;;;;;;;6.28;100.00;99148.23;176904;1261;46093;-86
2024/04/20 04:53:49;;;;;;;3.20;2.70;;;;;;;6.29;100.00;99153.14;176962;1262;59272;-87
2024/04/20 04:57:52;;;;;;;7.90;1.60;;;;;;;6.34;100.00;99156.25;176892;1263;46134;-88
2024/04/20 05:01:55;;;;;;;2.10;1.90;;;;;;;6.40;100.00;99160.64;176316;1262;46083;-87
2024/04/20 05:05:59;;;;;;;2.90;2.20;;;;;;;6.48;100.00;99165.50;177075;1264;46034;-87
2024/04/20 05:10:03;;;;;;;2.70;2.20;;;;;;;6.55;100.00;99169.30;177271;1263;45896;-86
2024/04/20 05:14:06;;;;;;;4.10;2.60;;;;;;;6.61;100.00;99171.86;177396;1262;59572;-88
2024/04/20 05:18:11;;;;;;;1.90;1.60;;;;;;;6.64;100.00;99175.74;176859;1262;46011;-86
2024/04/20 05:22:14;;;;;;;3.70;1.30;;;;;;;6.65;100.00;99180.84;177109;1263;46292;-88
2024/04/20 05:26:17;;;;;;;2.20;2.00;;;;;;;6.75;100.00;99185.63;177234;1261;45965;-87
2024/04/20 05:30:20;;;;;;;3.40;2.40;;;;;;;6.87;100.00;99191.85;177006;1265;46090;-86
2024/04/20 05:34:23;;;;;;;2.40;2.20;;;;;;;6.98;100.00;99192.21;176831;1261;59802;-87
2024/04/20 05:38:26;;;;;;;2.30;1.90;;;;;;;7.05;100.00;99196.91;176745;1261;46126;-88
2024/04/20 05:42:29;;;;;;;3.80;3.00;;;;;;;7.12;100.00;99198.80;176842;1261;46094;-87
2024/04/20 05:46:32;;;;;;;3.30;2.40;;;;;;;7.18;100.00;99205.55;177357;1262;46241;-86
2024/04/20 05:50:35;;;;;;;3.10;2.40;;;;;;;7.17;100.00;99210.02;178067;1262;45997;-86
2024/04/20 05:54:38;;;;;;;3.30;2.50;;;;;;;6.99;100.00;99219.03;177594;1262;59439;-87
2024/04/20 05:58:42;;;;;;;4.10;3.20;;;;;;;6.89;100.00;99228.16;176983;1263;46089;-89
2024/04/20 06:02:45;;;;;;;3.40;2.70;;;;;;;6.88;100.00;99233.35;176701;1262;46131;-88
2024/04/20 06:06:48;;;;;;;3.10;2.70;;;;;;;6.92;100.00;99240.09;178595;1262;43968;-87
2024/04/20 06:10:53;;;;;;;6.60;2.30;;;;;;;6.93;100.00;99242.68;177400;1262;45944;-87
2024/04/20 06:14:57;;;;;;;3.40;2.60;;;;;;;6.88;100.00;99245.40;176616;1265;59655;-86
2024/04/20 06:19:00;;;;;;;9.10;4.10;;;;;;;6.93;100.00;99249.56;176587;1262;46017;-86
2024/04/20 06:23:04;;;;;;;4.00;2.60;;;;;;;6.95;100.00;99255.14;177211;1262;46107;-87
2024/04/20 06:27:07;;;;;;;8.10;2.70;;;;;;;7.06;100.00;99260.64;176958;1261;45994;-87
2024/04/20 06:31:10;;;;;;;2.70;2.50;;;;;;;6.92;100.00;99263.71;177169;1264;46058;-88
2024/04/20 06:35:13;;;;;;;2.60;2.40;;;;;;;6.89;100.00;99269.96;176973;1261;59419;-88
2024/04/20 06:39:16;;;;;;;4.80;2.70;;;;;;;6.92;100.00;99271.29;177049;1263;46217;-87
2024/04/20 06:43:20;;;;;;;4.60;3.00;;;;;;;6.98;100.00;99279.07;176607;1263;46119;-87
2024/04/20 06:47:23;;;;;;;4.70;4.20;;;;;;;7.18;100.00;99278.46;176677;1263;46121;-88
2024/04/20 06:51:26;;;;;;;5.50;3.20;;;;;;;7.32;100.00;99287.71;177386;1260;46001;-86
2024/04/20 06:55:29;;;;;;;3.20;2.70;;;;;;;7.34;100.00;99294.84;177535;1259;58226;-88
2024/04/20 06:59:32;;;;;;;6.50;2.60;;;;;;;7.37;100.00;99297.58;177052;1261;46254;-86
2024/04/20 07:03:36;;;;;;;3.80;2.70;;;;;;;7.30;100.00;99303.64;176992;1263;46132;-86
2024/04/20 07:07:39;;;;;;;3.20;2.40;;;;;;;7.30;100.00;99308.91;176942;1261;46220;-86
2024/04/20 07:11:42;;;;;;;3.00;2.40;;;;;;;7.19;100.00;99313.13;177431;1264;45634;-85
2024/04/20 07:15:52;;;;;;;4.00;2.70;;;;;;;7.23;100.00;99319.73;176636;1262;59109;-86
2024/04/20 07:19:57;;;;;;;8.60;5.40;;;;;;;7.17;100.00;99323.38;176951;1260;46116;-87
2024/04/20 07:24:01;;;;;;;6.10;4.20;;;;;;;7.22;100.00;99327.90;176953;1262;46010;-87
2024/04/20 07:28:04;;;;;;;5.80;4.10;;;;;;;7.17;100.00;99334.27;176922;1261;46253;-86
2024/04/20 07:32:07;;;;;;;7.90;4.20;;;;;;;7.13;100.00;99340.76;176673;1265;46145;-87
2024/04/20 07:36:10;;;;;;;6.00;4.20;;;;;;;7.18;100.00;99346.20;177007;1261;59270;-86
2024/04/20 07:40:13;;;;;;;4.30;2.50;;;;;;;7.33;100.00;99349.96;178337;1262;46043;-84
2024/04/20 07:44:17;;;;;;;4.20;3.20;;;;;;;7.35;100.00;99353.83;180135;1262;46010;-82
2024/04/20 07:48:20;;;;;;;3.40;2.90;;;;;;;7.51;100.00;99356.40;178730;1263;46118;-86
2024/04/20 07:52:23;;;;;;;3.70;3.20;;;;;;;7.67;100.00;99363.34;176999;1260;45388;-87
2024/04/20 07:56:26;;;;;;;4.90;3.20;;;;;;;7.75;100.00;99369.03;176937;1261;59292;-87
2024/04/20 08:00:29;;;;;;;3.80;2.50;;;;;;;7.70;100.00;99376.16;177670;1260;46183;-88
2024/04/20 08:04:32;;;;;;;3.40;2.80;;;;;;;7.65;100.00;99379.73;179017;1263;46209;-87
2024/04/20 08:08:36;;;;;;;3.70;2.80;;;;;;;7.72;100.00;99388.70;178183;1262;46030;-88
2024/04/20 08:12:40;;;;;;;2.50;2.00;;;;;;;7.69;100.00;99392.83;177171;1262;46043;-87
2024/04/20 08:16:43;;;;;;;1.60;1.40;;;;;;;7.64;100.00;99404.36;177543;1262;58015;-85
2024/04/20 08:20:52;;;;;;;3.00;2.60;;;;;;;7.58;100.00;99409.75;177372;1263;46460;-87
2024/04/20 08:24:55;;;;;;;3.40;2.90;;;;;;;7.52;100.00;99415.38;177047;1265;46076;-86
2024/04/20 08:28:58;;;;;;;2.90;1.60;;;;;;;7.58;100.00;99421.08;176903;1262;290686;-86
2024/04/20 08:33:01;;;;;;;2.70;1.90;;;;;;;7.60;100.00;99427.64;176608;1264;46137;-86
2024/04/20 08:37:04;;;;;;;6.50;3.30;;;;;;;7.68;100.00;99430.88;176940;1262;60625;-86
2024/04/20 08:41:12;;;;;;;18.10;8.70;;;;;;;7.76;100.00;99437.73;177744;1261;46155;-88
2024/04/20 08:45:19;;;;;;;4.70;3.40;;;;;;;7.85;100.00;99443.23;177645;1262;44873;-87
2024/04/20 08:49:25;;;;;;;4.20;3.70;;;;;;;7.97;100.00;99450.17;177127;1261;46108;-85
2024/04/20 08:53:31;;;;;;;1.70;0.90;;;;;;;8.00;100.00;99456.96;176963;1264;46151;-86
2024/04/20 08:57:37;;;;;;;1.10;0.90;;;;;;;8.00;100.00;99465.91;177325;1262;59695;-86
2024/04/20 09:01:41;;;;;;;2.80;1.00;;;;;;;7.94;100.00;99472.61;176706;1263;46130;-86
2024/04/20 09:05:46;;;;;;;3.20;2.10;;;;;;;7.86;100.00;99478.77;176810;1262;46105;-85
2024/04/20 09:09:50;;;;;;;2.40;2.10;;;;;;;7.82;100.00;99492.31;177786;1260;46035;-87
2024/04/20 09:13:53;;;;;;;2.60;1.80;;;;;;;7.83;100.00;99501.75;177021;1261;47060;-87
2024/04/20 09:17:56;;;;;;;2.70;2.40;;;;;;;7.84;100.00;99513.02;176714;1262;59594;-86
2024/04/20 09:22:10;;;;;;;3.40;2.40;;;;;;;7.91;100.00;99518.21;177233;1261;46068;-85
2024/04/20 09:26:22;;;;;;;6.50;2.40;;;;;;;8.07;100.00;99524.56;176680;1261;46092;-85
2024/04/20 09:30:25;;;;;;;3.10;2.20;;;;;;;8.29;100.00;99531.22;176411;1262;46050;-85
2024/04/20 09:34:28;;;;;;;2.20;2.00;;;;;;;8.44;100.00;99534.38;176878;1260;46137;-87
2024/04/20 09:38:31;;;;;;;2.50;1.80;;;;;;;8.50;100.00;99538.81;177050;1262;59410;-87
2024/04/20 09:42:35;;;;;;;4.40;2.30;;;;;;;8.59;100.00;99546.38;176819;1262;46128;-85
2024/04/20 09:46:41;;;;;;;3.70;3.20;;;;;;;8.67;100.00;99555.73;177093;1260;46132;-86
2024/04/20 09:50:49;;;;;;;4.00;3.30;;;;;;;8.67;100.00;99558.09;176868;1262;46459;-87
2024/04/20 09:55:29;;;;;;;3.00;2.50;;;;;;;8.63;100.00;99565.88;176940;1262;46133;-88
2024/04/20 09:59:35;;;;;;;4.60;3.10;;;;;;;8.61;100.00;99568.88;177079;1263;59762;-86
2024/04/20 10:03:40;;;;;;;14.20;4.50;;;;;;;8.67;100.00;99568.28;177063;1263;46022;-86
2024/04/20 10:07:44;;;;;;;5.50;4.30;;;;;;;8.71;100.00;99575.41;177146;1262;46062;-85
2024/04/20 10:11:52;;;;;;;6.40;3.70;;;;;;;8.72;100.00;99575.14;177049;1262;45938;-87
2024/04/20 10:15:56;;;;;;;5.40;4.10;;;;;;;8.73;100.00;99579.12;176937;1263;46136;-88
2024/04/20 10:20:00;;;;;;;5.50;3.90;;;;;;;8.67;100.00;99584.38;177068;1261;59738;-87
2024/04/20 10:24:09;;;;;;;5.10;3.10;;;;;;;8.44;100.00;99616.33;179297;1257;46034;31
2024/04/20 10:28:27;;;;;;;5.80;3.20;;;;;;;7.81;100.00;99631.50;178774;1259;44131;-87
2024/04/20 10:32:31;;;;;;;3.70;2.60;;;;;;;7.25;100.00;99640.73;177439;1262;45958;-88
2024/04/20 10:36:34;;;;;;;5.80;3.10;;;;;;;6.92;100.00;99642.99;178164;1261;46215;-87
2024/04/20 10:40:38;;;;;;;3.90;3.60;;;;;;;6.77;100.00;99650.68;178255;1262;59615;-88
2024/04/20 10:44:41;;;;;;;6.20;5.40;;;;;;;6.56;100.00;99659.09;178841;1262;45950;-90
2024/04/20 10:48:55;;;;;;;5.50;4.20;;;;;;;6.44;100.00;99682.73;178867;1262;44876;-88
2024/04/20 10:53:05;;;;;;;5.90;5.30;;;;;;;6.29;100.00;99696.84;178233;1262;46000;-89
2024/04/20 10:57:10;;;;;;;5.60;4.40;;;;;;;6.21;100.00;99712.92;179058;1261;46134;-84
2024/04/20 11:01:16;;;;;;;7.20;5.30;;;;;;;6.09;100.00;99714.17;180055;1261;59788;-83
2024/04/20 11:05:19;;;;;;;7.60;5.40;;;;;;;6.01;100.00;99731.05;179894;1265;44850;-85
2024/04/20 11:09:23;;;;;;;5.00;4.40;;;;;;;6.06;100.00;99733.17;177105;1262;46007;-85
2024/04/20 11:13:26;;;;;;;5.80;4.70;;;;;;;6.13;100.00;99743.64;177721;1260;46738;-86
2024/04/20 11:17:28;;;;;;;5.00;4.30;;;;;;;6.09;100.00;99757.09;178705;1258;44036;-88
2024/04/20 11:21:35;;;;;;;5.90;4.90;;;;;;;6.01;100.00;99770.14;179375;1260;58261;-82
2024/04/20 11:25:53;;;;;;;6.60;4.80;;;;;;;6.00;100.00;99777.07;180322;1263;45255;-89
2024/04/20 11:29:58;;;;;;;5.10;4.30;;;;;;;5.94;100.00;99792.10;179421;1261;44457;-88
2024/04/20 11:34:03;;;;;;;6.00;4.90;;;;;;;5.91;100.00;99802.20;177630;1263;46097;-85
2024/04/20 11:38:08;;;;;;;9.10;5.80;;;;;;;5.74;100.00;99818.85;179313;1265;44972;-89
2024/04/20 11:46:48;;;;;;;6.10;4.40;;;;;;;5.58;100.00;99830.48;180487;1265;45438;-85
2024/04/20 11:51:01;;;;;;;5.30;4.90;;;;;;;5.50;100.00;99844.73;180499;1265;44621;-86
2024/04/20 11:55:54;;;;;;;5.80;3.80;;;;;;;5.47;100.00;99850.15;180766;1254;45998;-87
2024/04/20 12:00:03;;;;;;;4.70;4.20;;;;;;;5.53;100.00;99856.31;180965;1257;44188;-86
2024/04/20 12:04:08;;;;;;;5.50;3.90;;;;;;;5.49;100.00;99863.81;180001;1262;57957;-87
2024/04/20 12:08:11;;;;;;;5.80;3.80;;;;;;;5.47;100.00;99869.70;179579;1261;46347;-83
2024/04/20 12:12:14;;;;;;;6.10;3.80;;;;;;;5.41;100.00;99886.80;179574;1262;44766;-87
2024/04/20 12:16:17;;;;;;;3.60;2.90;;;;;;;5.34;100.00;99896.24;179099;1267;46134;-89
2024/04/20 12:20:20;;;;;;;5.10;3.80;;;;;;;5.26;100.00;99908.88;179191;1262;45941;-89
2024/04/20 12:24:24;;;;;;;4.50;3.90;;;;;;;5.24;100.00;99918.85;178863;1266;59727;-89
2024/04/20 12:28:27;;;;;;;5.60;4.60;;;;;;;5.18;100.00;99931.55;179314;1261;45123;-88
2024/04/20 12:32:30;;;;;;;4.50;4.10;;;;;;;5.18;100.00;99934.36;178942;1262;46017;-86
2024/04/20 12:36:33;;;;;;;4.20;3.80;;;;;;;5.18;100.00;99939.30;178221;1262;45242;-89
2024/04/20 12:40:36;;;;;;;5.40;4.40;;;;;;;5.18;100.00;99944.60;177831;1263;46132;-86
2024/04/20 12:44:39;;;;;;;6.40;3.00;;;;;;;5.13;100.00;99955.77;177938;1262;58121;-89
2024/04/20 12:48:42;;;;;;;4.20;3.80;;;;;;;5.06;100.00;99968.04;177663;1262;45982;-88
2024/04/20 12:52:46;;;;;;;5.00;3.90;;;;;;;4.97;100.00;99975.77;177575;1262;46119;-89
2024/04/20 12:56:49;;;;;;;8.00;3.40;;;;;;;4.94;100.00;99985.26;178056;1262;46016;-88
2024/04/20 13:00:52;;;;;;;4.50;3.40;;;;;;;4.98;100.00;99990.27;177123;1262;46068;-89
2024/04/20 13:04:55;;;;;;;3.80;3.40;;;;;;;4.98;100.00;100003.83;177369;1262;59700;-87
2024/04/20 13:08:58;;;;;;;3.80;2.80;;;;;;;4.97;100.00;100007.39;177494;1262;46008;-88
2024/04/20 13:13:02;;;;;;;5.30;2.80;;;;;;;5.03;100.00;100018.32;177286;1262;46098;-88
2024/04/20 13:17:06;;;;;;;3.60;2.90;;;;;;;4.98;100.00;100032.66;177304;1262;46181;-88
2024/04/20 13:21:09;;;;;;;5.80;4.30;;;;;;;4.93;100.00;100039.30;177091;1263;46107;-87
2024/04/20 13:25:12;;;;;;;3.00;2.80;;;;;;;4.84;100.00;100044.44;177166;1262;58032;-89
2024/04/20 13:29:15;;;;;;;4.40;2.90;;;;;;;4.75;100.00;100054.67;176753;1262;46065;-87
2024/04/20 13:33:19;;;;;;;4.90;3.20;;;;;;;4.67;100.00;100067.90;177361;1262;46157;-87
2024/04/20 13:37:23;;;;;;;3.10;2.70;;;;;;;4.68;100.00;100071.36;176768;1262;46020;-87
2024/04/20 13:41:26;;;;;;;6.40;2.60;;;;;;;4.67;100.00;100087.73;177338;1262;46008;-86
2024/04/20 13:45:29;;;;;;;2.80;2.40;;;;;;;4.69;100.00;100094.36;177291;1262;59914;-87
2024/04/20 13:49:32;;;;;;;7.00;3.60;;;;;;;4.71;100.00;100105.80;176772;1262;46215;-87
2024/04/20 13:53:35;;;;;;;7.80;3.90;;;;;;;4.69;100.00;100110.83;176615;1261;46130;-87
2024/04/20 13:57:38;;;;;;;4.60;3.30;;;;;;;4.74;100.00;100109.83;176930;1262;46155;-86
2024/04/20 14:01:41;;;;;;;5.20;3.40;;;;;;;4.78;100.00;100116.67;176985;1262;46259;-86
2024/04/20 14:05:49;;;;;;;5.50;3.40;;;;;;;4.76;100.00;100124.48;176680;1262;59670;-88
2024/04/20 14:09:52;;;;;;;5.00;4.50;;;;;;;4.74;100.00;100136.39;176695;1262;46014;-84
2024/04/20 14:13:55;;;;;;;5.30;4.80;;;;;;;4.76;100.00;100145.04;176789;1262;44604;-87
2024/04/20 14:17:58;;;;;;;5.30;3.60;;;;;;;4.71;100.00;100147.27;176761;1262;46124;-86
2024/04/20 14:22:02;;;;;;;5.40;4.50;;;;;;;4.66;100.00;100147.39;176969;1263;46624;-86
2024/04/20 14:26:08;;;;;;;7.60;3.90;;;;;;;4.69;100.00;100154.26;177232;1262;58755;-87
2024/04/20 14:30:16;;;;;;;8.20;3.80;;;;;;;4.78;100.00;100160.75;176863;1265;46134;-87
2024/04/20 14:34:19;;;;;;;5.80;5.30;;;;;;;4.81;100.00;100169.70;178123;1262;44812;-88
2024/04/20 14:38:22;;;;;;;4.90;4.00;;;;;;;4.82;100.00;100176.81;177671;1262;46048;-85
2024/04/20 14:42:27;;;;;;;7.80;4.20;;;;;;;4.85;100.00;100181.92;176964;1265;46125;-87
2024/04/20 14:46:30;;;;;;;4.50;3.80;;;;;;;4.80;100.00;100187.71;177462;1262;58025;-86
2024/04/20 14:50:33;;;;;;;9.80;4.70;;;;;;;4.81;100.00;100190.44;176860;1262;46074;-86
2024/04/20 14:54:37;;;;;;;5.30;4.40;;;;;;;4.86;100.00;100194.73;176769;1263;46078;-86
2024/04/20 14:58:40;;;;;;;6.10;4.40;;;;;;;4.85;100.00;100196.19;176647;1262;46053;-87
2024/04/20 15:02:43;;;;;;;5.70;3.80;;;;;;;4.82;100.00;100202.16;177141;1262;45911;-86
2024/04/20 15:06:46;;;;;;;5.40;4.40;;;;;;;4.82;100.00;100208.45;176890;1262;58482;-87
2024/04/20 15:10:50;;;;;;;4.60;3.70;;;;;;;4.83;100.00;100212.27;177076;1261;46008;-87
2024/04/20 15:14:53;;;;;;;9.60;6.50;;;;;;;4.86;100.00;100215.60;176721;1263;45943;-86
2024/04/20 15:18:57;;;;;;;9.20;6.30;;;;;;;4.87;100.00;100220.64;176932;1263;46152;-86
2024/04/20 15:23:00;;;;;;;5.30;3.80;;;;;;;4.94;100.00;100222.20;177535;1262;46336;-86
2024/04/20 15:27:03;;;;;;;9.00;4.80;;;;;;;4.97;100.00;100229.02;177266;1263;59248;-86
2024/04/20 15:31:06;;;;;;;8.40;4.10;;;;;;;5.01;100.00;100235.83;177111;1262;46205;-86
2024/04/20 15:35:10;;;;;;;5.60;5.10;;;;;;;5.04;100.00;100246.23;177214;1262;46064;-85
2024/04/20 15:39:13;;;;;;;6.40;4.60;;;;;;;5.02;100.00;100250.54;177051;1262;46622;-86
2024/04/20 15:43:15;;;;;;;7.00;4.20;;;;;;;4.98;100.00;100258.49;176749;1263;46049;-87
2024/04/20 15:47:19;;;;;;;6.30;5.30;;;;;;;4.94;100.00;100258.71;177150;1262;58209;-85
2024/04/20 15:51:22;;;;;;;5.80;4.70;;;;;;;4.93;100.00;100262.49;177132;1263;46152;-86
2024/04/20 15:55:26;;;;;;;8.80;5.50;;;;;;;4.96;100.00;100263.91;177905;1262;46232;-81
2024/04/20 15:59:29;;;;;;;4.20;3.60;;;;;;;5.02;100.00;100266.36;180082;1262;43707;-80
2024/04/20 16:03:33;;;;;;;6.00;4.20;;;;;;;5.08;100.00;100270.57;178563;1263;46587;-86
2024/04/20 16:07:36;;;;;;;6.70;4.70;;;;;;;5.09;100.00;100273.33;177257;1263;59092;-86
2024/04/20 16:11:42;;;;;;;9.80;6.00;;;;;;;5.12;100.00;100278.09;176956;1262;46137;-86
2024/04/20 16:15:55;;;;;;;6.70;4.60;;;;;;;5.16;100.00;100285.59;176751;1262;46389;-87
2024/04/20 16:19:58;;;;;;;7.00;4.30;;;;;;;5.06;100.00;100293.36;177116;1262;46156;-86
2024/04/20 16:24:03;;;;;;;4.20;3.80;;;;;;;5.02;100.00;100293.05;176729;1262;46205;-84
2024/04/20 16:28:06;;;;;;;4.50;4.00;;;;;;;4.91;100.00;100300.38;176794;1263;58345;-85
2024/04/20 16:32:09;;;;;;;6.30;3.40;;;;;;;4.93;100.00;100303.59;176510;1262;46122;-85
2024/04/20 16:36:12;;;;;;;5.50;4.10;;;;;;;4.89;100.00;100305.25;177261;1266;46109;-85
2024/04/20 16:40:15;;;;;;;6.40;3.50;;;;;;;4.92;100.00;100312.61;176969;1262;46256;-87
2024/04/20 16:44:18;;;;;;;6.60;4.70;;;;;;;4.95;100.00;100313.84;176919;1263;46140;-86
2024/04/20 16:48:21;;;;;;;5.50;4.40;;;;;;;4.97;100.00;100318.30;176326;1262;59646;-85
2024/04/20 16:52:24;;;;;;;7.10;3.90;;;;;;;4.97;100.00;100322.52;177413;1263;46173;-86
2024/04/20 16:56:27;;;;;;;7.60;5.00;;;;;;;4.98;100.00;100329.14;177211;1261;46022;-86
2024/04/20 17:00:30;;;;;;;7.40;4.90;;;;;;;4.97;100.00;100332.35;177111;1263;46166;-86
2024/04/20 17:04:33;;;;;;;7.50;3.80;;;;;;;4.96;100.00;100335.92;178727;1261;44506;-87
2024/04/20 17:08:37;;;;;;;4.10;3.20;;;;;;;4.96;100.00;100336.63;177393;1263;59954;-87
2024/04/20 17:12:40;;;;;;;4.60;4.00;;;;;;;4.93;100.00;100337.00;179134;1262;46080;-88
2024/04/20 17:16:44;;;;;;;5.60;4.80;;;;;;;4.88;100.00;100342.19;178954;1264;46045;-87
2024/04/20 17:25:25;;;;;;;5.20;4.40;;;;;;;4.84;100.00;100359.14;180839;1255;45117;31
2024/04/20 17:29:28;;;;;;;6.90;4.70;;;;;;;4.86;100.00;100359.86;178567;1266;58275;-85
2024/04/20 17:33:31;;;;;;;6.00;4.30;;;;;;;4.87;100.00;100365.99;178972;1263;44183;-85
2024/04/20 17:37:34;;;;;;;6.60;4.50;;;;;;;4.86;100.00;100369.39;178436;1266;46235;-88
2024/04/20 17:41:57;;;;;;;6.60;4.70;;;;;;;4.83;100.00;100371.11;179353;1262;45941;-88
2024/04/20 17:46:02;;;;;;;7.50;4.50;;;;;;;4.85;100.00;100374.73;179123;1266;44796;-86
2024/04/20 17:50:09;;;;;;;7.20;4.60;;;;;;;4.85;100.00;100382.77;180539;1263;58478;-82
2024/04/20 17:54:13;;;;;;;7.80;4.30;;;;;;;4.87;100.00;100384.61;180722;1259;45075;-81
2024/04/20 17:58:20;;;;;;;6.60;4.40;;;;;;;4.89;100.00;100385.70;181018;1254;44520;31
2024/04/20 18:02:23;;;;;;;7.30;5.50;;;;;;;4.92;100.00;100388.70;180252;1258;44979;-83
2024/04/20 18:06:26;;;;;;;8.30;5.00;;;;;;;4.92;100.00;100388.36;180179;1262;46001;-85
2024/04/20 18:10:33;;;;;;;8.30;4.90;;;;;;;4.94;100.00;100391.23;180407;1261;58315;-83
2024/04/20 18:14:36;;;;;;;7.60;4.30;;;;;;;4.96;100.00;100392.52;180306;1262;46599;-85
2024/04/20 18:18:43;;;;;;;7.20;5.30;;;;;;;5.01;100.00;100396.83;180291;1262;45090;-85
2024/04/20 18:22:51;;;;;;;7.20;4.80;;;;;;;5.07;100.00;100399.49;180518;1260;44733;31
2024/04/20 18:26:54;;;;;;;7.10;5.10;;;;;;;5.11;100.00;100406.96;180686;1260;44808;-85
2024/04/20 18:30:57;;;;;;;10.10;5.40;;;;;;;5.16;100.00;100405.98;180203;1262;58866;-89
2024/04/20 18:35:00;;;;;;;6.20;4.60;;;;;;;5.23;100.00;100406.63;179222;1264;46008;-88
2024/04/20 18:39:03;;;;;;;4.50;3.40;;;;;;;5.30;100.00;100412.59;178442;1262;44101;-88
2024/04/20 18:43:07;;;;;;;7.40;5.20;;;;;;;5.28;100.00;100419.89;179624;1264;46028;-83
2024/04/20 18:47:10;;;;;;;7.70;6.00;;;;;;;5.17;100.00;100423.33;180308;1265;45895;-81
2024/04/20 18:51:15;;;;;;;7.10;4.70;;;;;;;5.11;100.00;100421.25;179619;1262;58621;-87
2024/04/20 18:55:19;;;;;;;7.70;6.00;;;;;;;5.04;100.00;100424.45;178925;1262;45985;-84
2024/04/20 18:59:24;;;;;;;6.10;5.20;;;;;;;5.03;100.00;100428.92;179447;1262;46022;-82